createdAt,value
2023-02-23T00:00:00.810Z,0.00
2023-02-23T00:01:00.818Z,0.00
2023-02-23T00:02:00.794Z,0.00
2023-02-23T00:03:02.701Z,0.00
2023-02-23T00:04:00.780Z,0.00
2023-02-23T00:05:00.751Z,0.00
2023-02-23T00:06:00.740Z,0.00
2023-02-23T00:07:00.733Z,0.00
2023-02-23T00:08:00.697Z,0.00
2023-02-23T00:09:00.718Z,0.00
2023-02-23T00:10:00.976Z,0.00
2023-02-23T00:11:00.683Z,0.00
2023-02-23T00:12:00.737Z,0.00
2023-02-23T00:13:00.668Z,0.00
2023-02-23T00:14:00.639Z,0.00
2023-02-23T00:15:00.632Z,0.00
2023-02-23T00:16:04.556Z,0.00
2023-02-23T00:17:00.601Z,0.00
2023-02-23T00:18:00.620Z,0.00
2023-02-23T00:19:00.663Z,0.00
2023-02-23T00:20:01.259Z,0.00
2023-02-23T00:21:08.594Z,0.00
2023-02-23T00:22:08.598Z,0.00
2023-02-23T00:23:08.559Z,0.00
2023-02-23T00:24:08.599Z,0.00
2023-02-23T00:25:10.053Z,0.00
2023-02-23T00:26:09.051Z,0.00
2023-02-23T00:27:00.484Z,0.00
2023-02-23T00:28:00.568Z,0.00
2023-02-23T00:29:01.245Z,0.00
2023-02-23T00:30:00.458Z,0.00
2023-02-23T00:31:03.277Z,0.00
2023-02-23T00:32:00.474Z,0.00
2023-02-23T00:33:00.455Z,0.00
2023-02-23T00:34:00.451Z,0.00
2023-02-23T00:35:00.402Z,0.00
2023-02-23T00:36:00.418Z,0.00
2023-02-23T00:37:00.408Z,0.00
2023-02-23T00:38:01.360Z,0.00
2023-02-23T00:39:02.518Z,0.00
2023-02-23T00:40:00.346Z,0.00
2023-02-23T00:41:00.331Z,0.00
2023-02-23T00:42:00.320Z,0.00
2023-02-23T00:43:00.328Z,0.00
2023-02-23T00:44:00.354Z,0.00
2023-02-23T00:45:00.302Z,0.00
2023-02-23T00:46:00.325Z,0.00
2023-02-23T00:47:01.990Z,0.00
2023-02-23T00:48:00.281Z,0.00
2023-02-23T00:49:01.752Z,0.00
2023-02-23T00:50:00.243Z,0.00
2023-02-23T00:51:00.214Z,0.00
2023-02-23T00:52:00.203Z,0.00
2023-02-23T00:53:00.194Z,0.00
2023-02-23T00:54:00.191Z,0.00
2023-02-23T00:55:00.419Z,0.00
2023-02-23T00:56:00.947Z,0.00
2023-02-23T00:57:00.185Z,0.00
2023-02-23T00:58:08.727Z,0.00
2023-02-23T00:59:08.681Z,0.00
2023-02-23T01:00:08.659Z,0.00
2023-02-23T01:01:08.217Z,0.00
2023-02-23T01:02:08.696Z,0.00
2023-02-23T01:03:00.104Z,0.00
2023-02-23T01:04:00.118Z,0.00
2023-02-23T01:05:00.065Z,0.00
2023-02-23T01:06:00.313Z,0.00
2023-02-23T01:07:00.078Z,0.00
2023-02-23T01:08:00.086Z,0.00
2023-02-23T01:09:00.362Z,0.00
2023-02-23T01:09:59.985Z,0.00
2023-02-23T01:11:00.031Z,0.00
2023-02-23T01:12:00.269Z,0.00
2023-02-23T01:12:59.973Z,0.00
2023-02-23T01:13:59.963Z,0.00
2023-02-23T01:14:59.961Z,0.00
2023-02-23T01:15:59.920Z,0.00
2023-02-23T01:16:59.926Z,0.00
2023-02-23T01:17:59.909Z,0.00
2023-02-23T01:18:59.938Z,0.00
2023-02-23T01:19:59.891Z,0.00
2023-02-23T01:20:59.912Z,0.00
2023-02-23T01:21:59.854Z,0.00
2023-02-23T01:22:59.830Z,0.00
2023-02-23T01:23:59.850Z,0.00
2023-02-23T01:24:59.832Z,0.00
2023-02-23T01:26:00.070Z,0.00
2023-02-23T01:26:59.809Z,0.00
2023-02-23T01:27:59.793Z,0.00
2023-02-23T01:28:59.794Z,0.00
2023-02-23T01:29:59.780Z,0.00
2023-02-23T01:30:59.857Z,0.00
2023-02-23T01:32:00.205Z,0.00
2023-02-23T01:33:21.626Z,0.00
2023-02-23T01:33:59.781Z,0.00
2023-02-23T01:35:02.441Z,0.00
2023-02-23T01:35:59.744Z,0.00
2023-02-23T01:36:59.702Z,0.00
2023-02-23T01:37:59.712Z,0.00
2023-02-23T01:38:59.970Z,0.00
2023-02-23T01:39:59.689Z,0.00
2023-02-23T01:40:59.975Z,0.00
2023-02-23T01:41:59.625Z,0.00
2023-02-23T01:42:59.612Z,0.00
2023-02-23T01:43:59.873Z,0.00
2023-02-23T01:45:01.577Z,0.00
2023-02-23T01:45:59.684Z,0.00
2023-02-23T01:46:59.604Z,0.00
2023-02-23T01:47:59.581Z,0.00
2023-02-23T01:48:59.594Z,0.00
2023-02-23T01:49:59.584Z,0.00
2023-02-23T01:51:00.293Z,0.00
2023-02-23T01:51:59.545Z,0.00
2023-02-23T01:52:59.505Z,0.00
2023-02-23T01:53:59.504Z,0.00
2023-02-23T01:54:59.503Z,0.00
2023-02-23T01:55:59.494Z,0.00
2023-02-23T01:56:59.455Z,0.00
2023-02-23T01:57:59.582Z,0.00
2023-02-23T01:58:59.500Z,0.00
2023-02-23T02:00:07.994Z,0.00
2023-02-23T02:01:06.950Z,0.00
2023-02-23T02:02:06.467Z,0.00
2023-02-23T02:03:08.579Z,0.00
2023-02-23T02:04:09.136Z,0.00
2023-02-23T02:04:59.903Z,0.00
2023-02-23T02:05:59.364Z,0.00
2023-02-23T02:06:59.356Z,0.00
2023-02-23T02:07:59.355Z,0.00
2023-02-23T02:08:59.559Z,0.00
2023-02-23T02:09:59.337Z,0.00
2023-02-23T02:10:59.276Z,0.00
2023-02-23T02:11:59.296Z,0.00
2023-02-23T02:12:59.282Z,0.00
2023-02-23T02:13:59.360Z,0.00
2023-02-23T02:15:00.062Z,0.00
2023-02-23T02:15:59.333Z,0.00
2023-02-23T02:17:00.689Z,0.00
2023-02-23T02:17:59.237Z,0.00
2023-02-23T02:18:59.499Z,0.00
2023-02-23T02:19:59.207Z,0.00
2023-02-23T02:20:59.971Z,0.00
2023-02-23T02:22:00.634Z,0.00
2023-02-23T02:22:59.261Z,0.00
2023-02-23T02:23:59.173Z,0.00
2023-02-23T02:24:59.168Z,0.00
2023-02-23T02:25:59.129Z,0.00
2023-02-23T02:27:00.133Z,0.00
2023-02-23T02:27:59.128Z,0.00
2023-02-23T02:28:59.141Z,0.00
2023-02-23T02:29:59.080Z,0.00
2023-02-23T02:31:00.252Z,0.00
2023-02-23T02:32:00.261Z,0.00
2023-02-23T02:32:59.811Z,0.00
2023-02-23T02:33:59.950Z,0.00
2023-02-23T02:34:59.040Z,0.00
2023-02-23T02:35:59.011Z,0.00
2023-02-23T02:37:00.191Z,0.00
2023-02-23T02:37:59.491Z,0.00
2023-02-23T02:38:59.008Z,0.00
2023-02-23T02:39:59.012Z,0.00
2023-02-23T02:40:58.952Z,0.00
2023-02-23T02:42:00.412Z,0.00
2023-02-23T02:42:58.935Z,0.00
2023-02-23T02:44:00.015Z,0.00
2023-02-23T02:44:58.931Z,0.00
2023-02-23T02:45:58.926Z,0.00
2023-02-23T02:47:00.334Z,0.00
2023-02-23T02:47:58.870Z,0.00
2023-02-23T02:48:58.894Z,0.00
2023-02-23T02:49:58.865Z,0.00
2023-02-23T02:50:58.845Z,0.00
2023-02-23T02:52:00.292Z,0.00
2023-02-23T02:53:00.268Z,0.00
2023-02-23T02:53:58.817Z,0.00
2023-02-23T02:54:58.827Z,0.00
2023-02-23T02:55:58.777Z,0.00
2023-02-23T02:57:04.896Z,0.00
2023-02-23T02:57:58.757Z,0.00
2023-02-23T02:58:58.749Z,0.00
2023-02-23T02:59:58.759Z,0.00
2023-02-23T03:01:00.278Z,0.00
2023-02-23T03:01:59.848Z,0.00
2023-02-23T03:02:59.130Z,0.00
2023-02-23T03:03:58.692Z,0.00
2023-02-23T03:04:59.081Z,0.00
2023-02-23T03:05:58.670Z,0.00
2023-02-23T03:07:04.965Z,0.00
2023-02-23T03:07:58.642Z,0.00
2023-02-23T03:08:58.653Z,0.00
2023-02-23T03:09:58.630Z,0.00
2023-02-23T03:10:58.630Z,0.00
2023-02-23T03:12:00.040Z,0.00
2023-02-23T03:12:59.697Z,0.00
2023-02-23T03:13:58.579Z,0.00
2023-02-23T03:14:58.590Z,0.00
2023-02-23T03:15:58.605Z,0.00
2023-02-23T03:16:59.983Z,0.00
2023-02-23T03:17:58.525Z,0.00
2023-02-23T03:18:58.550Z,0.00
2023-02-23T03:19:58.512Z,0.00
2023-02-23T03:20:58.491Z,0.00
2023-02-23T03:21:58.492Z,0.00
2023-02-23T03:22:58.474Z,0.00
2023-02-23T03:23:58.472Z,0.00
2023-02-23T03:24:58.492Z,0.00
2023-02-23T03:26:04.413Z,0.00
2023-02-23T03:26:59.502Z,0.00
2023-02-23T03:27:58.412Z,0.00
2023-02-23T03:28:58.430Z,0.00
2023-02-23T03:29:58.403Z,0.00
2023-02-23T03:30:59.875Z,0.00
2023-02-23T03:31:58.468Z,0.00
2023-02-23T03:32:59.404Z,0.00
2023-02-23T03:33:58.349Z,0.00
2023-02-23T03:35:10.029Z,0.00
2023-02-23T03:36:05.363Z,0.00
2023-02-23T03:36:58.304Z,0.00
2023-02-23T03:37:58.289Z,0.00
2023-02-23T03:39:05.323Z,0.00
2023-02-23T03:39:58.269Z,0.00
2023-02-23T03:41:01.012Z,0.00
2023-02-23T03:41:58.264Z,0.00
2023-02-23T03:42:58.248Z,0.00
2023-02-23T03:43:59.279Z,0.00
2023-02-23T03:44:58.213Z,0.00
2023-02-23T03:45:58.307Z,0.00
2023-02-23T03:46:59.090Z,0.00
2023-02-23T03:47:58.191Z,0.00
2023-02-23T03:48:58.224Z,0.00
2023-02-23T03:49:58.173Z,0.00
2023-02-23T03:50:58.150Z,0.00
2023-02-23T03:51:58.142Z,0.00
2023-02-23T03:52:59.570Z,0.00
2023-02-23T03:53:58.130Z,0.00
2023-02-23T03:54:58.117Z,0.00
2023-02-23T03:55:58.812Z,0.00
2023-02-23T03:56:58.102Z,0.00
2023-02-23T03:57:58.089Z,0.00
2023-02-23T03:58:58.049Z,0.00
2023-02-23T03:59:58.054Z,0.00
2023-02-23T04:00:58.050Z,0.00
2023-02-23T04:01:58.109Z,0.00
2023-02-23T04:02:58.015Z,0.00
2023-02-23T04:03:59.009Z,0.00
2023-02-23T04:04:58.933Z,0.00
2023-02-23T04:05:57.995Z,0.00
2023-02-23T04:06:57.967Z,0.00
2023-02-23T04:07:59.119Z,0.00
2023-02-23T04:08:57.996Z,0.00
2023-02-23T04:09:57.930Z,0.00
2023-02-23T04:10:57.920Z,0.00
2023-02-23T04:11:57.929Z,0.00
2023-02-23T04:12:57.895Z,0.00
2023-02-23T04:13:57.899Z,0.00
2023-02-23T04:14:57.880Z,0.00
2023-02-23T04:15:58.859Z,0.00
2023-02-23T04:16:57.853Z,0.00
2023-02-23T04:17:57.859Z,0.00
2023-02-23T04:18:57.859Z,0.00
2023-02-23T04:19:57.819Z,0.00
2023-02-23T04:20:58.983Z,0.00
2023-02-23T04:21:57.803Z,0.00
2023-02-23T04:22:57.772Z,0.00
2023-02-23T04:23:58.608Z,0.00
2023-02-23T04:24:57.750Z,0.00
2023-02-23T04:25:57.759Z,0.00
2023-02-23T04:26:57.750Z,0.00
2023-02-23T04:27:57.725Z,0.00
2023-02-23T04:28:58.631Z,0.00
2023-02-23T04:29:57.713Z,0.00
2023-02-23T04:30:57.753Z,0.00
2023-02-23T04:31:57.758Z,0.00
2023-02-23T04:32:57.652Z,0.00
2023-02-23T04:33:57.654Z,0.00
2023-02-23T04:34:57.644Z,0.00
2023-02-23T04:35:57.654Z,0.00
2023-02-23T04:36:57.927Z,0.00
2023-02-23T04:37:57.618Z,0.00
2023-02-23T04:38:57.597Z,0.00
2023-02-23T04:39:57.617Z,0.00
2023-02-23T04:40:57.588Z,0.00
2023-02-23T04:41:57.586Z,0.00
2023-02-23T04:42:57.557Z,0.00
2023-02-23T04:43:57.568Z,0.00
2023-02-23T04:44:57.535Z,0.00
2023-02-23T04:45:57.619Z,0.00
2023-02-23T04:46:58.966Z,0.00
2023-02-23T04:47:57.762Z,0.00
2023-02-23T04:48:57.492Z,0.00
2023-02-23T04:49:58.669Z,0.00
2023-02-23T04:50:57.462Z,0.00
2023-02-23T04:51:57.442Z,0.00
2023-02-23T04:52:57.725Z,0.00
2023-02-23T04:53:57.446Z,0.00
2023-02-23T04:55:05.442Z,0.00
2023-02-23T04:56:04.409Z,0.00
2023-02-23T04:57:05.427Z,0.00
2023-02-23T04:58:04.405Z,0.00
2023-02-23T04:59:04.391Z,0.00
2023-02-23T05:00:05.375Z,0.00
2023-02-23T05:00:57.354Z,0.00
2023-02-23T05:01:57.336Z,0.00
2023-02-23T05:02:57.359Z,0.00
2023-02-23T05:03:57.325Z,0.00
2023-02-23T05:04:57.360Z,0.00
2023-02-23T05:05:57.285Z,0.00
2023-02-23T05:06:57.274Z,0.00
2023-02-23T05:07:57.274Z,0.00
2023-02-23T05:08:57.267Z,0.00
2023-02-23T05:09:57.246Z,0.00
2023-02-23T05:10:58.216Z,0.00
2023-02-23T05:11:57.263Z,0.00
2023-02-23T05:12:57.219Z,0.00
2023-02-23T05:14:04.743Z,0.00
2023-02-23T05:15:05.222Z,0.00
2023-02-23T05:16:04.214Z,0.00
2023-02-23T05:17:06.332Z,0.00
2023-02-23T05:17:57.157Z,0.00
2023-02-23T05:18:57.149Z,0.00
2023-02-23T05:19:57.133Z,0.00
2023-02-23T05:20:57.124Z,0.00
2023-02-23T05:21:57.125Z,0.00
2023-02-23T05:22:58.092Z,0.00
2023-02-23T05:23:57.137Z,0.00
2023-02-23T05:24:57.596Z,0.00
2023-02-23T05:25:57.085Z,0.00
2023-02-23T05:26:57.046Z,0.00
2023-02-23T05:27:57.064Z,0.00
2023-02-23T05:28:57.075Z,0.00
2023-02-23T05:29:57.935Z,0.00
2023-02-23T05:30:57.062Z,0.00
2023-02-23T05:31:58.333Z,0.00
2023-02-23T05:32:56.976Z,0.00
2023-02-23T05:33:58.062Z,0.00
2023-02-23T05:34:56.958Z,0.00
2023-02-23T05:35:56.954Z,0.00
2023-02-23T05:36:56.942Z,0.00
2023-02-23T05:37:56.934Z,0.00
2023-02-23T05:38:56.918Z,0.00
2023-02-23T05:39:56.903Z,0.00
2023-02-23T05:40:56.894Z,0.00
2023-02-23T05:41:56.894Z,0.00
2023-02-23T05:42:57.123Z,0.00
2023-02-23T05:43:56.871Z,0.00
2023-02-23T05:44:56.845Z,0.00
2023-02-23T05:45:56.871Z,0.00
2023-02-23T05:46:57.823Z,0.00
2023-02-23T05:47:56.814Z,0.00
2023-02-23T05:48:56.800Z,0.00
2023-02-23T05:49:56.816Z,0.00
2023-02-23T05:50:56.792Z,0.00
2023-02-23T05:51:56.762Z,0.00
2023-02-23T05:52:56.767Z,0.00
2023-02-23T05:53:58.199Z,0.00
2023-02-23T05:54:56.751Z,0.00
2023-02-23T05:55:56.845Z,0.00
2023-02-23T05:56:56.706Z,0.00
2023-02-23T05:57:56.719Z,0.00
2023-02-23T05:58:57.694Z,0.00
2023-02-23T05:59:56.675Z,0.00
2023-02-23T06:00:56.650Z,0.00
2023-02-23T06:01:56.657Z,0.00
2023-02-23T06:02:56.764Z,0.00
2023-02-23T06:03:57.721Z,0.00
2023-02-23T06:04:56.627Z,0.00
2023-02-23T06:05:56.595Z,0.00
2023-02-23T06:06:58.310Z,0.00
2023-02-23T06:07:56.587Z,0.00
2023-02-23T06:08:56.592Z,0.00
2023-02-23T06:09:56.547Z,0.00
2023-02-23T06:10:57.577Z,0.00
2023-02-23T06:11:56.526Z,4.00
2023-02-23T06:12:57.440Z,4.00
2023-02-23T06:13:57.267Z,0.00
2023-02-23T06:14:56.507Z,4.00
2023-02-23T06:15:56.531Z,4.00
2023-02-23T06:16:56.527Z,4.00
2023-02-23T06:17:56.496Z,4.00
2023-02-23T06:18:57.295Z,8.00
2023-02-23T06:19:56.462Z,8.00
2023-02-23T06:20:56.430Z,8.00
2023-02-23T06:21:56.458Z,12.00
2023-02-23T06:22:57.464Z,12.00
2023-02-23T06:23:56.493Z,12.00
2023-02-23T06:24:57.836Z,16.00
2023-02-23T06:25:56.404Z,20.00
2023-02-23T06:26:56.366Z,20.00
2023-02-23T06:27:56.377Z,24.00
2023-02-23T06:28:56.402Z,24.00
2023-02-23T06:29:56.350Z,24.00
2023-02-23T06:30:56.473Z,24.00
2023-02-23T06:33:08.200Z,24.00
2023-02-23T06:34:06.380Z,28.00
2023-02-23T06:35:06.709Z,24.00
2023-02-23T06:36:07.110Z,32.00
2023-02-23T06:37:08.906Z,28.00
2023-02-23T06:38:06.544Z,32.00
2023-02-23T06:39:09.148Z,40.00
2023-02-23T06:40:07.027Z,44.00
2023-02-23T06:41:06.259Z,52.00
2023-02-23T06:42:06.280Z,60.00
2023-02-23T06:43:06.299Z,68.00
2023-02-23T06:44:06.232Z,72.00
2023-02-23T06:45:06.959Z,80.00
2023-02-23T06:46:06.241Z,92.00
2023-02-23T06:47:08.999Z,96.00
2023-02-23T06:48:06.378Z,100.00
2023-02-23T06:49:16.511Z,104.00
2023-02-23T06:50:13.223Z,104.00
2023-02-23T06:51:14.154Z,104.00
2023-02-23T06:52:14.163Z,108.00
2023-02-23T06:53:14.654Z,112.00
2023-02-23T06:54:13.139Z,120.00
2023-02-23T06:55:14.479Z,124.00
2023-02-23T06:56:06.399Z,124.00
2023-02-23T06:57:06.100Z,120.00
2023-02-23T06:58:06.090Z,112.00
2023-02-23T06:59:06.080Z,108.00
2023-02-23T07:00:06.083Z,108.00
2023-02-23T07:01:06.058Z,112.00
2023-02-23T07:02:06.042Z,112.00
2023-02-23T07:03:06.078Z,120.00
2023-02-23T07:04:06.070Z,128.00
2023-02-23T07:05:05.998Z,132.00
2023-02-23T07:06:05.992Z,136.00
2023-02-23T07:07:05.965Z,144.00
2023-02-23T07:08:05.978Z,152.00
2023-02-23T07:09:05.965Z,160.00
2023-02-23T07:10:05.944Z,168.00
2023-02-23T07:11:05.927Z,180.00
2023-02-23T07:12:05.907Z,188.00
2023-02-23T07:13:05.912Z,200.00
2023-02-23T07:14:07.694Z,204.00
2023-02-23T07:15:05.888Z,208.00
2023-02-23T07:16:05.915Z,208.00
2023-02-23T07:17:05.847Z,212.00
2023-02-23T07:18:05.851Z,216.00
2023-02-23T07:19:05.838Z,228.00
2023-02-23T07:20:05.830Z,240.00
2023-02-23T07:21:05.832Z,256.00
2023-02-23T07:22:05.796Z,272.00
2023-02-23T07:23:05.804Z,280.00
2023-02-23T07:24:05.766Z,284.00
2023-02-23T07:25:05.776Z,304.00
2023-02-23T07:26:09.596Z,320.00
2023-02-23T07:27:05.735Z,344.00
2023-02-23T07:28:05.728Z,368.00
2023-02-23T07:29:05.739Z,396.00
2023-02-23T07:30:05.718Z,432.00
2023-02-23T07:31:05.895Z,472.00
2023-02-23T07:32:05.792Z,512.00
2023-02-23T07:33:05.667Z,540.00
2023-02-23T07:34:05.710Z,552.00
2023-02-23T07:35:05.651Z,560.00
2023-02-23T07:36:05.691Z,572.00
2023-02-23T07:37:06.490Z,584.00
2023-02-23T07:38:05.618Z,600.00
2023-02-23T07:39:05.624Z,612.00
2023-02-23T07:40:05.592Z,624.00
2023-02-23T07:41:05.632Z,644.00
2023-02-23T07:42:07.386Z,660.00
2023-02-23T07:43:05.561Z,676.00
2023-02-23T07:44:05.584Z,676.00
2023-02-23T07:45:05.555Z,660.00
2023-02-23T07:46:05.541Z,644.00
2023-02-23T07:47:05.538Z,628.00
2023-02-23T07:48:05.520Z,620.00
2023-02-23T07:49:05.577Z,616.00
2023-02-23T07:50:05.524Z,596.00
2023-02-23T07:51:05.523Z,572.00
2023-02-23T07:52:05.499Z,556.00
2023-02-23T07:53:05.452Z,548.00
2023-02-23T07:54:05.562Z,536.00
2023-02-23T07:55:05.472Z,532.00
2023-02-23T07:56:05.422Z,540.00
2023-02-23T07:57:05.420Z,556.00
2023-02-23T07:58:05.398Z,576.00
2023-02-23T07:59:05.390Z,592.00
2023-02-23T08:00:05.380Z,600.00
2023-02-23T08:01:05.421Z,616.00
2023-02-23T08:02:05.351Z,628.00
2023-02-23T08:03:05.373Z,628.00
2023-02-23T08:04:05.393Z,616.00
2023-02-23T08:05:05.343Z,616.00
2023-02-23T08:06:05.340Z,640.00
2023-02-23T08:07:05.309Z,680.00
2023-02-23T08:08:05.303Z,736.00
2023-02-23T08:09:05.273Z,800.00
2023-02-23T08:10:05.267Z,852.00
2023-02-23T08:11:05.258Z,884.00
2023-02-23T08:12:05.240Z,892.00
2023-02-23T08:13:05.299Z,904.00
2023-02-23T08:14:05.225Z,916.00
2023-02-23T08:15:05.210Z,928.00
2023-02-23T08:16:05.202Z,948.00
2023-02-23T08:17:05.233Z,952.00
2023-02-23T08:18:05.182Z,948.00
2023-02-23T08:19:05.159Z,936.00
2023-02-23T08:20:05.143Z,928.00
2023-02-23T08:21:05.161Z,944.00
2023-02-23T08:22:06.867Z,1004.00
2023-02-23T08:23:05.108Z,1100.00
2023-02-23T08:24:06.960Z,1212.00
2023-02-23T08:25:05.080Z,1308.00
2023-02-23T08:26:05.092Z,1380.00
2023-02-23T08:27:05.072Z,1424.00
2023-02-23T08:28:05.075Z,1444.00
2023-02-23T08:29:12.047Z,1452.00
2023-02-23T08:30:12.054Z,1472.00
2023-02-23T08:31:13.978Z,1536.00
2023-02-23T08:32:12.139Z,1664.00
2023-02-23T08:33:04.980Z,1844.00
2023-02-23T08:34:05.001Z,1916.00
2023-02-23T08:35:04.963Z,1860.00
2023-02-23T08:36:04.987Z,1888.00
2023-02-23T08:37:04.941Z,1924.00
2023-02-23T08:38:04.940Z,1936.00
2023-02-23T08:39:04.947Z,1912.00
2023-02-23T08:40:04.957Z,1948.00
2023-02-23T08:41:04.929Z,2020.00
2023-02-23T08:42:04.883Z,1996.00
2023-02-23T08:43:04.883Z,2072.00
2023-02-23T08:44:04.872Z,2212.00
2023-02-23T08:45:04.854Z,2276.00
2023-02-23T08:46:04.908Z,2364.00
2023-02-23T08:47:04.827Z,2572.00
2023-02-23T08:48:04.813Z,2864.00
2023-02-23T08:49:04.826Z,2944.00
2023-02-23T08:50:04.789Z,3044.00
2023-02-23T08:51:04.818Z,3136.00
2023-02-23T08:52:04.801Z,3320.00
2023-02-23T08:53:04.768Z,3556.00
2023-02-23T08:54:04.739Z,3792.00
2023-02-23T08:55:14.196Z,3868.00
2023-02-23T08:56:05.344Z,3696.00
2023-02-23T08:57:12.737Z,3756.00
2023-02-23T08:58:04.718Z,3708.00
2023-02-23T08:59:04.690Z,3584.00
2023-02-23T09:00:04.684Z,3540.00
2023-02-23T09:01:04.746Z,3512.00
2023-02-23T09:02:04.982Z,3488.00
2023-02-23T09:03:04.644Z,3536.00
2023-02-23T09:04:04.673Z,3624.00
2023-02-23T09:05:04.668Z,3812.00
2023-02-23T09:06:04.640Z,4168.00
2023-02-23T09:07:04.634Z,4540.00
2023-02-23T09:08:04.594Z,4724.00
2023-02-23T09:09:04.638Z,4820.00
2023-02-23T09:10:04.610Z,4892.00
2023-02-23T09:11:05.368Z,4948.00
2023-02-23T09:12:04.563Z,5024.00
2023-02-23T09:13:04.551Z,5080.00
2023-02-23T09:14:04.537Z,5160.00
2023-02-23T09:15:04.502Z,5176.00
2023-02-23T09:16:04.665Z,5228.00
2023-02-23T09:17:04.544Z,5260.00
2023-02-23T09:18:05.535Z,5212.00
2023-02-23T09:19:05.612Z,5044.00
2023-02-23T09:20:04.620Z,4932.00
2023-02-23T09:21:04.573Z,4804.00
2023-02-23T09:22:04.835Z,4752.00
2023-02-23T09:23:04.482Z,4820.00
2023-02-23T09:24:06.675Z,4764.00
2023-02-23T09:25:04.409Z,4616.00
2023-02-23T09:26:04.453Z,4516.00
2023-02-23T09:27:04.371Z,4560.00
2023-02-23T09:28:06.209Z,4264.00
2023-02-23T09:29:07.248Z,3984.00
2023-02-23T09:30:04.484Z,3924.00
2023-02-23T09:31:04.936Z,4100.00
2023-02-23T09:32:06.712Z,4208.00
2023-02-23T09:33:04.473Z,4120.00
2023-02-23T09:34:04.344Z,3892.00
2023-02-23T09:35:04.596Z,3592.00
2023-02-23T09:36:04.304Z,3396.00
2023-02-23T09:37:04.386Z,3208.00
2023-02-23T09:38:04.287Z,3212.00
2023-02-23T09:39:07.043Z,3080.00
2023-02-23T09:40:04.224Z,2960.00
2023-02-23T09:41:04.263Z,2988.00
2023-02-23T09:42:04.215Z,2968.00
2023-02-23T09:43:04.436Z,2992.00
2023-02-23T09:44:04.224Z,2880.00
2023-02-23T09:45:04.168Z,2684.00
2023-02-23T09:46:04.205Z,2672.00
2023-02-23T09:47:04.177Z,2684.00
2023-02-23T09:48:04.146Z,2424.00
2023-02-23T09:49:04.124Z,2124.00
2023-02-23T09:50:04.148Z,2056.00
2023-02-23T09:51:04.108Z,2056.00
2023-02-23T09:52:04.122Z,1996.00
2023-02-23T09:53:04.760Z,2056.00
2023-02-23T09:54:04.097Z,2292.00
2023-02-23T09:55:04.078Z,2484.00
2023-02-23T09:56:04.093Z,2484.00
2023-02-23T09:57:04.080Z,2560.00
2023-02-23T09:58:04.028Z,2620.00
2023-02-23T09:59:04.041Z,2680.00
2023-02-23T10:00:03.994Z,2756.00
2023-02-23T10:01:04.003Z,2920.00
2023-02-23T10:02:03.981Z,3184.00
2023-02-23T10:03:03.989Z,3648.00
2023-02-23T10:04:03.988Z,4140.00
2023-02-23T10:05:03.998Z,4564.00
2023-02-23T10:06:03.933Z,5012.00
2023-02-23T10:07:10.968Z,5488.00
2023-02-23T10:08:10.926Z,5832.00
2023-02-23T10:09:12.214Z,5980.00
2023-02-23T10:10:10.966Z,6048.00
2023-02-23T10:11:03.889Z,6084.00
2023-02-23T10:12:11.253Z,6148.00
2023-02-23T10:13:03.875Z,6164.00
2023-02-23T10:14:03.860Z,6180.00
2023-02-23T10:15:03.902Z,6144.00
2023-02-23T10:16:04.047Z,6004.00
2023-02-23T10:17:04.051Z,5828.00
2023-02-23T10:18:03.930Z,6120.00
2023-02-23T10:19:03.872Z,6500.00
2023-02-23T10:20:03.910Z,6596.00
2023-02-23T10:21:03.849Z,6396.00
2023-02-23T10:22:03.817Z,6124.00
2023-02-23T10:23:04.200Z,5696.00
2023-02-23T10:24:03.960Z,5364.00
2023-02-23T10:25:03.851Z,5084.00
2023-02-23T10:26:03.813Z,4748.00
2023-02-23T10:27:03.879Z,4584.00
2023-02-23T10:28:03.800Z,4508.00
2023-02-23T10:29:04.689Z,4448.00
2023-02-23T10:30:03.737Z,4476.00
2023-02-23T10:31:03.879Z,4588.00
2023-02-23T10:32:03.831Z,4788.00
2023-02-23T10:33:03.786Z,5024.00
2023-02-23T10:34:03.630Z,5504.00
2023-02-23T10:35:03.601Z,6072.00
2023-02-23T10:36:12.967Z,6416.00
2023-02-23T10:37:04.605Z,6228.00
2023-02-23T10:38:03.583Z,5888.00
2023-02-23T10:39:03.575Z,5652.00
2023-02-23T10:40:04.409Z,5732.00
2023-02-23T10:41:04.367Z,6208.00
2023-02-23T10:42:03.531Z,6624.00
2023-02-23T10:43:03.532Z,6928.00
2023-02-23T10:44:15.890Z,6936.00
2023-02-23T10:45:04.641Z,6744.00
2023-02-23T10:46:05.438Z,6568.00
2023-02-23T10:47:03.523Z,6408.00
2023-02-23T10:48:03.527Z,6340.00
2023-02-23T10:49:03.464Z,6252.00
2023-02-23T10:50:03.467Z,5944.00
2023-02-23T10:51:03.437Z,6096.00
2023-02-23T10:52:03.436Z,6292.00
2023-02-23T10:53:03.406Z,6348.00
2023-02-23T10:54:08.036Z,6244.00
2023-02-23T10:55:03.404Z,5836.00
2023-02-23T10:56:03.384Z,5428.00
2023-02-23T10:57:03.372Z,5396.00
2023-02-23T10:58:03.354Z,5512.00
2023-02-23T10:59:03.363Z,5696.00
2023-02-23T11:00:03.344Z,5576.00
2023-02-23T11:01:03.315Z,5112.00
2023-02-23T11:02:03.370Z,5024.00
2023-02-23T11:03:03.368Z,5304.00
2023-02-23T11:04:06.249Z,5692.00
2023-02-23T11:05:03.410Z,5384.00
2023-02-23T11:06:03.265Z,4972.00
2023-02-23T11:07:03.258Z,4752.00
2023-02-23T11:08:03.286Z,4396.00
2023-02-23T11:09:03.374Z,4264.00
2023-02-23T11:10:03.237Z,4484.00
2023-02-23T11:11:04.207Z,4356.00
2023-02-23T11:12:03.227Z,4088.00
2023-02-23T11:13:03.223Z,4184.00
2023-02-23T11:14:03.187Z,4552.00
2023-02-23T11:15:03.175Z,4988.00
2023-02-23T11:16:03.177Z,5632.00
2023-02-23T11:17:03.158Z,6036.00
2023-02-23T11:18:03.152Z,6148.00
2023-02-23T11:19:03.115Z,6056.00
2023-02-23T11:20:03.202Z,5880.00
2023-02-23T11:21:03.140Z,5720.00
2023-02-23T11:22:03.126Z,5500.00
2023-02-23T11:23:14.025Z,5360.00
2023-02-23T11:24:04.092Z,5148.00
2023-02-23T11:25:03.096Z,4984.00
2023-02-23T11:26:03.144Z,5272.00
2023-02-23T11:27:03.049Z,5152.00
2023-02-23T11:28:03.045Z,4784.00
2023-02-23T11:29:03.060Z,4660.00
2023-02-23T11:30:03.390Z,4632.00
2023-02-23T11:31:03.126Z,4724.00
2023-02-23T11:32:06.784Z,4432.00
2023-02-23T11:33:04.005Z,3952.00
2023-02-23T11:34:02.950Z,3832.00
2023-02-23T11:35:03.005Z,3712.00
2023-02-23T11:36:02.957Z,3168.00
2023-02-23T11:37:02.961Z,2680.00
2023-02-23T11:38:05.382Z,2352.00
2023-02-23T11:39:02.917Z,2252.00
2023-02-23T11:40:02.900Z,2444.00
2023-02-23T11:41:03.247Z,2984.00
2023-02-23T11:42:02.936Z,3868.00
2023-02-23T11:43:02.866Z,4420.00
2023-02-23T11:44:04.965Z,5136.00
2023-02-23T11:45:02.840Z,6064.00
2023-02-23T11:46:02.886Z,7016.00
2023-02-23T11:47:10.910Z,7800.00
2023-02-23T11:48:10.333Z,8248.00
2023-02-23T11:49:11.128Z,8444.00
2023-02-23T11:50:10.199Z,8432.00
2023-02-23T11:51:02.767Z,8412.00
2023-02-23T11:52:02.762Z,8452.00
2023-02-23T11:53:02.767Z,8516.00
2023-02-23T11:54:04.625Z,8528.00
2023-02-23T11:55:02.780Z,8440.00
2023-02-23T11:56:02.766Z,8332.00
2023-02-23T11:57:02.911Z,8228.00
2023-02-23T11:58:02.706Z,8156.00
2023-02-23T11:59:02.701Z,8064.00
2023-02-23T12:00:02.675Z,7892.00
2023-02-23T12:01:02.682Z,7588.00
2023-02-23T12:02:02.634Z,7116.00
2023-02-23T12:03:02.654Z,6480.00
2023-02-23T12:04:02.618Z,5800.00
2023-02-23T12:05:02.689Z,5120.00
2023-02-23T12:06:02.621Z,4528.00
2023-02-23T12:07:02.593Z,4200.00
2023-02-23T12:08:02.643Z,4336.00
2023-02-23T12:09:02.597Z,4816.00
2023-02-23T12:10:02.567Z,5124.00
2023-02-23T12:11:02.565Z,5188.00
2023-02-23T12:12:03.748Z,5056.00
2023-02-23T12:13:02.524Z,5376.00
2023-02-23T12:14:02.507Z,6180.00
2023-02-23T12:15:02.532Z,7076.00
2023-02-23T12:16:02.552Z,7780.00
2023-02-23T12:17:04.287Z,7920.00
2023-02-23T12:18:02.476Z,7792.00
2023-02-23T12:19:02.451Z,7912.00
2023-02-23T12:20:02.457Z,7968.00
2023-02-23T12:21:02.447Z,7908.00
2023-02-23T12:22:02.425Z,7780.00
2023-02-23T12:23:02.414Z,7524.00
2023-02-23T12:24:02.418Z,7276.00
2023-02-23T12:25:02.459Z,7108.00
2023-02-23T12:26:02.401Z,6968.00
2023-02-23T12:27:02.369Z,6912.00
2023-02-23T12:28:16.883Z,6668.00
2023-02-23T12:29:03.347Z,6236.00
2023-02-23T12:30:02.355Z,5816.00
2023-02-23T12:31:02.377Z,5500.00
2023-02-23T12:32:02.370Z,5708.00
2023-02-23T12:33:02.299Z,5884.00
2023-02-23T12:34:02.278Z,5440.00
2023-02-23T12:35:02.323Z,5128.00
2023-02-23T12:36:02.265Z,5236.00
2023-02-23T12:37:02.250Z,5328.00
2023-02-23T12:38:02.243Z,5280.00
2023-02-23T12:39:02.227Z,5148.00
2023-02-23T12:40:02.248Z,5116.00
2023-02-23T12:41:02.206Z,5140.00
2023-02-23T12:42:02.214Z,4832.00
2023-02-23T12:43:02.211Z,4492.00
2023-02-23T12:44:02.212Z,4068.00
2023-02-23T12:45:02.184Z,3764.00